createdAt,value
2019-04-03T00:00:31.215Z,100226.20
2019-04-03T00:03:06.190Z,100226.96
2019-04-03T00:05:41.321Z,100234.05
2019-04-03T00:08:16.380Z,100229.41
2019-04-03T00:10:51.501Z,100226.50
2019-04-03T00:13:26.798Z,100235.20
2019-04-03T00:16:01.990Z,100234.09
2019-04-03T00:18:37.235Z,100233.55
2019-04-03T00:21:12.399Z,100227.47
2019-04-03T00:23:47.466Z,100234.73
2019-04-03T00:26:22.795Z,100232.86
2019-04-03T00:28:57.799Z,100237.01
2019-04-03T00:31:35.696Z,100227.73
2019-04-03T00:34:10.756Z,100222.52
2019-04-03T00:36:45.912Z,100227.77
2019-04-03T00:39:20.938Z,100223.02
2019-04-03T00:41:55.948Z,100217.45
2019-04-03T00:44:30.997Z,100225.77
2019-04-03T00:47:06.096Z,100229.70
2019-04-03T00:49:41.205Z,100238.11
2019-04-03T00:52:16.183Z,100238.35
2019-04-03T00:54:51.242Z,100244.13
2019-04-03T00:57:26.907Z,100234.91
2019-04-03T01:00:02.102Z,100243.23
2019-04-03T01:02:37.277Z,100243.75
2019-04-03T01:05:12.485Z,100253.70
2019-04-03T01:07:49.191Z,100253.25
2019-04-03T01:10:24.344Z,100256.70
2019-04-03T01:13:01.363Z,100255.64
2019-04-03T01:15:36.114Z,100257.23
2019-04-03T01:18:11.235Z,100242.81
2019-04-03T01:20:46.451Z,100240.19
2019-04-03T01:23:22.212Z,100239.30
2019-04-03T01:25:57.269Z,100235.11
2019-04-03T01:28:32.551Z,100236.71
2019-04-03T01:31:07.569Z,100242.44
2019-04-03T01:33:42.685Z,100242.63
2019-04-03T01:36:18.646Z,100246.82
2019-04-03T01:38:54.200Z,100248.16
2019-04-03T01:41:29.253Z,100247.53
2019-04-03T01:44:04.288Z,100248.13
2019-04-03T01:46:41.841Z,100241.69
2019-04-03T01:49:16.867Z,100246.44
2019-04-03T01:51:52.059Z,100243.56
2019-04-03T01:54:27.103Z,100243.09
2019-04-03T01:57:06.203Z,100245.47
2019-04-03T01:59:40.055Z,100242.84
2019-04-03T02:02:15.088Z,100242.59
2019-04-03T02:04:50.131Z,100238.41
2019-04-03T02:07:25.169Z,100242.09
2019-04-03T02:10:00.195Z,100237.91
2019-04-03T02:12:35.541Z,100240.89
2019-04-03T02:15:10.740Z,100237.21
2019-04-03T02:17:46.026Z,100241.65
2019-04-03T02:20:21.404Z,100244.30
2019-04-03T02:22:59.308Z,100245.05
2019-04-03T02:25:34.206Z,100241.92
2019-04-03T02:28:09.216Z,100239.00
2019-04-03T02:30:47.195Z,100234.28
2019-04-03T02:33:22.586Z,100240.00
2019-04-03T02:35:57.681Z,100229.52
2019-04-03T02:38:33.211Z,100236.66
2019-04-03T02:41:08.278Z,100228.53
2019-04-03T02:43:46.570Z,100224.06
2019-04-03T02:46:20.620Z,100225.67
2019-04-03T02:48:55.747Z,100225.95
2019-04-03T02:51:31.311Z,100221.99
2019-04-03T02:54:29.783Z,100220.96
2019-04-03T02:57:05.042Z,100208.36
2019-04-03T02:59:40.109Z,100213.34
2019-04-03T03:02:15.102Z,100213.03
2019-04-03T03:04:53.731Z,100212.00
2019-04-03T03:07:26.882Z,100209.86
2019-04-03T03:10:03.917Z,100209.33
2019-04-03T03:12:41.048Z,100207.21
2019-04-03T03:15:17.605Z,100211.34
2019-04-03T03:17:55.096Z,100215.53
2019-04-03T03:20:32.655Z,100214.97
2019-04-03T03:23:07.821Z,100229.14
2019-04-03T03:25:43.795Z,100228.92
2019-04-03T03:28:19.392Z,100228.17
2019-04-03T03:31:02.709Z,100229.48
2019-04-03T03:33:38.526Z,100231.30
2019-04-03T03:36:15.293Z,100236.34
2019-04-03T03:38:48.864Z,100233.45
2019-04-03T03:41:24.836Z,100238.69
2019-04-03T03:44:00.000Z,100238.91
2019-04-03T03:46:35.480Z,100241.31
2019-04-03T03:49:10.766Z,100246.56
2019-04-03T03:51:46.866Z,100248.62
2019-04-03T03:54:24.170Z,100242.06
2019-04-03T03:57:04.362Z,100238.41
2019-04-03T03:59:40.761Z,100238.16
2019-04-03T04:02:17.164Z,100242.38
2019-04-03T04:04:52.548Z,100239.98
2019-04-03T04:07:28.716Z,100240.28
2019-04-03T04:10:04.480Z,100240.56
2019-04-03T04:12:41.778Z,100229.79
2019-04-03T04:15:19.025Z,100231.86
2019-04-03T04:17:55.280Z,100226.39
2019-04-03T04:20:31.399Z,100234.23
2019-04-03T04:23:07.375Z,100237.66
2019-04-03T04:25:44.190Z,100245.81
2019-04-03T04:28:20.752Z,100242.71
2019-04-03T04:30:56.292Z,100236.13
2019-04-03T04:33:31.647Z,100239.05
2019-04-03T04:36:07.011Z,100247.15
2019-04-03T04:38:42.204Z,100240.84
2019-04-03T04:41:17.227Z,100248.46
2019-04-03T04:43:52.436Z,100251.37
2019-04-03T04:46:27.430Z,100257.42
2019-04-03T04:49:02.758Z,100257.64
2019-04-03T04:51:37.964Z,100259.18
2019-04-03T04:54:13.192Z,100267.08
2019-04-03T04:56:48.219Z,100260.08
2019-04-03T04:59:23.731Z,100264.44
2019-04-03T05:01:58.718Z,100272.59
2019-04-03T05:04:34.100Z,100271.73
2019-04-03T05:07:09.962Z,100272.23
2019-04-03T05:09:44.961Z,100277.70
2019-04-03T05:12:19.970Z,100286.31
2019-04-03T05:15:09.383Z,100282.75
2019-04-03T05:17:52.179Z,100300.88
2019-04-03T05:20:27.271Z,100297.03
2019-04-03T05:25:50.446Z,100301.84
2019-04-03T05:28:25.744Z,100294.10
2019-04-03T05:31:01.240Z,100300.33
2019-04-03T05:33:36.592Z,100295.73
2019-04-03T05:36:11.797Z,100306.47
2019-04-03T05:38:46.775Z,100303.09
2019-04-03T05:41:21.966Z,100301.87
2019-04-03T05:43:56.982Z,100308.88
2019-04-03T05:46:32.769Z,100313.67
2019-04-03T05:49:10.719Z,100309.80
2019-04-03T05:51:44.755Z,100303.10
2019-04-03T05:54:20.030Z,100309.80
2019-04-03T05:56:55.323Z,100308.52
2019-04-03T05:59:32.744Z,100306.38
2019-04-03T06:02:14.560Z,100304.23
2019-04-03T06:04:44.032Z,100310.84
2019-04-03T06:07:19.190Z,100311.91
2019-04-03T06:09:58.279Z,100315.27
2019-04-03T06:12:31.326Z,100317.57
2019-04-03T06:15:09.827Z,100314.41
2019-04-03T06:17:50.248Z,100319.09
2019-04-03T06:20:24.862Z,100312.61
2019-04-03T06:23:00.132Z,100308.71
2019-04-03T06:25:35.919Z,100315.27
2019-04-03T06:28:13.136Z,100320.62
2019-04-03T06:30:47.866Z,100315.13
2019-04-03T06:33:24.397Z,100311.41
2019-04-03T06:35:59.594Z,100314.03
2019-04-03T06:38:34.990Z,100317.97
2019-04-03T06:41:09.978Z,100323.25
2019-04-03T06:43:45.131Z,100321.69
2019-04-03T06:46:20.262Z,100321.08
2019-04-03T06:48:55.892Z,100321.08
2019-04-03T06:51:31.134Z,100328.74
2019-04-03T06:54:08.060Z,100331.94
2019-04-03T06:56:43.184Z,100332.96
2019-04-03T06:59:18.378Z,100335.13
2019-04-03T07:01:53.699Z,100332.28
2019-04-03T07:04:29.043Z,100336.75
2019-04-03T07:07:04.765Z,100338.63
2019-04-03T07:09:41.146Z,100339.96
2019-04-03T07:12:16.439Z,100334.46
2019-04-03T07:14:51.932Z,100325.05
2019-04-03T07:17:27.220Z,100310.62
2019-04-03T07:20:12.559Z,100314.30
2019-04-03T07:22:39.949Z,100320.48
2019-04-03T07:25:16.003Z,100321.28
2019-04-03T07:27:51.101Z,100322.12
2019-04-03T07:30:26.105Z,100322.62
2019-04-03T07:33:01.334Z,100316.80
2019-04-03T07:35:39.226Z,100315.80
2019-04-03T07:38:13.427Z,100316.80
2019-04-03T07:40:51.064Z,100313.88
2019-04-03T07:43:26.921Z,100314.16
2019-04-03T07:46:03.447Z,100315.48
2019-04-03T07:48:39.270Z,100312.87
2019-04-03T07:51:14.610Z,100318.66
2019-04-03T07:53:51.203Z,100309.72
2019-04-03T07:56:26.977Z,100320.72
2019-04-03T07:59:03.895Z,100329.17
2019-04-03T08:01:41.308Z,100328.64
2019-04-03T08:04:16.824Z,100322.07
2019-04-03T08:06:52.332Z,100318.67
2019-04-03T08:09:27.465Z,100324.69
2019-04-03T08:12:04.194Z,100325.73
2019-04-03T08:14:41.125Z,100336.48
2019-04-03T08:17:16.701Z,100346.97
2019-04-03T08:19:54.363Z,100360.77
2019-04-03T08:22:32.789Z,100367.87
2019-04-03T08:25:11.000Z,100371.80
2019-04-03T08:27:44.516Z,100376.16
2019-04-03T08:30:22.307Z,100372.15
2019-04-03T08:32:57.466Z,100373.78
2019-04-03T08:35:35.107Z,100383.71
2019-04-03T08:38:12.522Z,100380.84
2019-04-03T08:40:46.195Z,100382.86
2019-04-03T08:43:21.300Z,100381.02
2019-04-03T08:45:56.581Z,100375.84
2019-04-03T08:48:31.852Z,100379.66
2019-04-03T08:51:07.427Z,100376.34
2019-04-03T08:53:42.690Z,100369.83
2019-04-03T08:56:17.985Z,100357.53
2019-04-03T08:58:53.216Z,100362.55
2019-04-03T09:01:28.296Z,100372.36
2019-04-03T09:04:03.474Z,100371.30
2019-04-03T09:06:38.507Z,100372.65
2019-04-03T09:09:13.733Z,100373.95
2019-04-03T09:11:49.056Z,100376.84
2019-04-03T09:14:25.544Z,100381.59
2019-04-03T09:17:02.696Z,100388.44
2019-04-03T09:19:40.625Z,100383.93
2019-04-03T09:22:14.384Z,100385.48
2019-04-03T09:24:49.409Z,100390.84
2019-04-03T09:27:24.447Z,100387.45
2019-04-03T09:29:59.488Z,100387.66
2019-04-03T09:32:36.988Z,100385.59
2019-04-03T09:35:12.502Z,100379.56
2019-04-03T09:37:47.835Z,100375.61
2019-04-03T09:40:24.655Z,100379.13
2019-04-03T09:43:00.761Z,100364.55
2019-04-03T09:45:35.792Z,100360.44
2019-04-03T09:48:12.303Z,100364.20
2019-04-03T09:50:47.574Z,100362.33
2019-04-03T09:53:23.965Z,100356.23
2019-04-03T09:55:59.803Z,100356.33
2019-04-03T09:58:36.266Z,100360.27
2019-04-03T10:01:15.692Z,100361.34
2019-04-03T10:03:48.661Z,100358.98
2019-04-03T10:06:24.246Z,100345.52
2019-04-03T10:08:59.876Z,100344.44
2019-04-03T10:11:38.255Z,100340.25
2019-04-03T10:14:12.863Z,100343.95
2019-04-03T10:16:47.877Z,100347.92
2019-04-03T10:19:23.023Z,100345.29
2019-04-03T10:21:59.223Z,100339.77
2019-04-03T10:24:34.856Z,100337.13
2019-04-03T10:27:11.203Z,100341.86
2019-04-03T10:29:49.148Z,100339.23
2019-04-03T10:32:27.190Z,100343.45
2019-04-03T10:35:00.654Z,100337.64
2019-04-03T10:37:35.693Z,100332.14
2019-04-03T10:40:24.972Z,100333.17
2019-04-03T10:43:04.680Z,100334.75
2019-04-03T10:45:38.441Z,100332.91
2019-04-03T10:48:14.489Z,100337.94
2019-04-03T10:50:49.530Z,100334.75
2019-04-03T10:53:24.533Z,100337.05
2019-04-03T10:56:00.574Z,100340.48
2019-04-03T10:58:38.136Z,100334.61
2019-04-03T11:01:15.907Z,100333.58
2019-04-03T11:03:51.056Z,100336.18
2019-04-03T11:06:27.050Z,100333.04
2019-04-03T11:09:02.322Z,100333.86
2019-04-03T11:11:39.015Z,100326.52
2019-04-03T11:14:14.362Z,100330.99
2019-04-03T11:16:49.373Z,100329.34
2019-04-03T11:19:24.424Z,100326.74
2019-04-03T11:21:59.689Z,100322.26
2019-04-03T11:24:37.787Z,100313.06
2019-04-03T11:27:12.379Z,100319.13
2019-04-03T11:29:47.422Z,100311.80
2019-04-03T11:32:23.400Z,100312.34
2019-04-03T11:34:58.913Z,100309.52
2019-04-03T11:37:34.317Z,100306.08
2019-04-03T11:40:10.857Z,100312.32
2019-04-03T11:42:46.033Z,100311.47
2019-04-03T11:45:21.347Z,100312.05
2019-04-03T11:47:56.799Z,100302.58
2019-04-03T11:50:32.625Z,100306.48
2019-04-03T11:53:07.827Z,100308.03
2019-04-03T11:55:43.268Z,100310.30
2019-04-03T11:58:20.179Z,100305.80
2019-04-03T12:00:55.351Z,100302.72
2019-04-03T12:03:30.439Z,100300.94
2019-04-03T12:06:06.961Z,100298.23
2019-04-03T12:08:44.572Z,100302.14
2019-04-03T12:11:18.875Z,100301.87
2019-04-03T12:13:54.008Z,100297.87
2019-04-03T12:16:29.091Z,100293.41
2019-04-03T12:19:05.768Z,100293.75
2019-04-03T12:21:42.757Z,100290.56
2019-04-03T12:24:18.305Z,100292.79
2019-04-03T12:26:55.420Z,100291.59
2019-04-03T12:29:30.979Z,100286.09
2019-04-03T12:32:07.795Z,100294.95
2019-04-03T12:34:42.989Z,100281.37
2019-04-03T12:37:18.714Z,100281.02
2019-04-03T12:39:54.444Z,100285.53
2019-04-03T12:42:29.955Z,100284.52
2019-04-03T12:45:09.725Z,100289.36
2019-04-03T12:47:45.337Z,100288.55
2019-04-03T12:50:20.567Z,100280.72
2019-04-03T12:52:55.544Z,100281.02
2019-04-03T12:55:30.526Z,100281.61
2019-04-03T12:58:06.156Z,100280.53
2019-04-03T13:00:41.319Z,100278.98
2019-04-03T13:03:16.750Z,100284.99
2019-04-03T13:05:51.870Z,100276.93
2019-04-03T13:08:27.237Z,100269.64
2019-04-03T13:11:02.684Z,100274.96
2019-04-03T13:13:38.639Z,100274.50
2019-04-03T13:16:15.018Z,100258.84
2019-04-03T13:18:50.021Z,100273.23
2019-04-03T13:21:25.085Z,100262.77
2019-04-03T13:24:00.119Z,100252.59
2019-04-03T13:26:35.213Z,100253.27
2019-04-03T13:29:10.677Z,100243.63
2019-04-03T13:31:47.057Z,100240.22
2019-04-03T13:34:22.548Z,100234.14
2019-04-03T13:36:59.082Z,100225.47
2019-04-03T13:39:34.831Z,100213.08
2019-04-03T13:42:12.709Z,100211.48
2019-04-03T13:44:46.637Z,100208.04
2019-04-03T13:47:21.768Z,100208.19
2019-04-03T13:49:56.790Z,100218.73
2019-04-03T13:52:40.261Z,100215.36
2019-04-03T13:55:09.830Z,100214.97
2019-04-03T13:57:44.991Z,100220.02
2019-04-03T14:00:23.508Z,100211.84
2019-04-03T14:02:58.546Z,100221.59
2019-04-03T14:05:34.133Z,100214.78
2019-04-03T14:08:12.208Z,100221.58
2019-04-03T14:10:46.269Z,100223.55
2019-04-03T14:13:21.699Z,100233.36
2019-04-03T14:15:56.921Z,100231.77
2019-04-03T14:18:32.170Z,100221.52
2019-04-03T14:21:08.265Z,100219.46
2019-04-03T14:23:44.228Z,100221.84
2019-04-03T14:26:19.264Z,100217.23
2019-04-03T14:28:54.627Z,100216.46
2019-04-03T14:31:35.585Z,100204.23
2019-04-03T14:34:06.585Z,100197.64
2019-04-03T14:36:41.819Z,100198.95
2019-04-03T14:39:17.165Z,100193.23
2019-04-03T14:41:54.262Z,100183.33
2019-04-03T14:44:29.246Z,100167.86
2019-04-03T14:47:04.533Z,100178.10
2019-04-03T14:49:39.522Z,100158.67
2019-04-03T14:52:15.026Z,100158.61
2019-04-03T14:54:51.647Z,100165.74
2019-04-03T14:57:26.898Z,100177.77
2019-04-03T15:00:05.084Z,100177.02
2019-04-03T15:02:41.008Z,100174.90
2019-04-03T15:05:18.664Z,100169.43
2019-04-03T15:07:53.959Z,100170.19
2019-04-03T15:10:30.690Z,100180.06
2019-04-03T15:13:06.032Z,100179.06
2019-04-03T15:15:42.777Z,100181.94
2019-04-03T15:18:17.795Z,100165.44
2019-04-03T15:20:53.283Z,100156.49
2019-04-03T15:23:28.306Z,100152.28
2019-04-03T15:26:03.522Z,100147.51
2019-04-03T15:28:38.552Z,100154.19
2019-04-03T15:31:14.937Z,100151.28
2019-04-03T15:33:50.018Z,100156.25
2019-04-03T15:36:25.474Z,100155.47
2019-04-03T15:39:01.508Z,100161.91
2019-04-03T15:41:38.246Z,100159.86
2019-04-03T15:44:13.490Z,100158.50
2019-04-03T15:46:49.667Z,100155.42
2019-04-03T15:49:26.738Z,100156.25
2019-04-03T15:52:01.725Z,100163.54
2019-04-03T15:54:38.710Z,100151.35
2019-04-03T15:57:14.365Z,100142.70
2019-04-03T15:59:52.056Z,100130.66
2019-04-03T16:02:28.459Z,100124.08
2019-04-03T16:05:03.162Z,100117.28
2019-04-03T16:07:41.439Z,100110.13
2019-04-03T16:10:15.293Z,100135.50
2019-04-03T16:12:50.362Z,100135.87
2019-04-03T16:15:25.538Z,100136.94
2019-04-03T16:18:00.543Z,100127.51
2019-04-03T16:20:36.414Z,100134.39
2019-04-03T16:23:11.633Z,100135.01
2019-04-03T16:25:48.575Z,100129.81
2019-04-03T16:28:23.639Z,100133.52
2019-04-03T16:30:59.148Z,100137.97
2019-04-03T16:33:35.802Z,100131.09
2019-04-03T16:36:11.417Z,100127.98
2019-04-03T16:38:46.920Z,100122.98
2019-04-03T16:41:22.220Z,100120.42
2019-04-03T16:43:57.258Z,100115.19
2019-04-03T16:46:32.634Z,100119.86
2019-04-03T16:49:07.938Z,100131.94
2019-04-03T16:51:43.683Z,100135.59
2019-04-03T16:54:18.944Z,100158.10
2019-04-03T16:56:54.286Z,100170.19
2019-04-03T16:59:29.355Z,100181.94
2019-04-03T17:02:04.512Z,100191.23
2019-04-03T17:04:39.892Z,100199.59
2019-04-03T17:07:14.902Z,100200.22
2019-04-03T17:09:50.108Z,100196.91
2019-04-03T17:12:25.370Z,100190.88
2019-04-03T17:15:00.535Z,100179.66
2019-04-03T17:17:35.576Z,100179.16
2019-04-03T17:20:11.588Z,100179.22
2019-04-03T17:22:46.991Z,100173.51
2019-04-03T17:25:26.887Z,100168.20
2019-04-03T17:28:05.803Z,100167.36
2019-04-03T17:30:37.300Z,100158.19
2019-04-03T17:33:12.572Z,100167.86
2019-04-03T17:35:49.618Z,100160.53
2019-04-03T17:38:24.656Z,100166.80
2019-04-03T17:40:59.696Z,100168.86
2019-04-03T17:43:35.182Z,100171.23
2019-04-03T17:46:10.218Z,100163.05
2019-04-03T17:48:45.243Z,100163.29
2019-04-03T17:51:20.992Z,100164.85
2019-04-03T17:53:56.074Z,100164.89
2019-04-03T17:56:31.071Z,100163.08
2019-04-03T17:59:06.495Z,100165.70
2019-04-03T18:01:41.772Z,100159.04
2019-04-03T18:04:16.765Z,100169.73
2019-04-03T18:06:52.589Z,100167.96
2019-04-03T18:09:27.624Z,100160.60
2019-04-03T18:12:02.845Z,100168.41
2019-04-03T18:14:37.861Z,100172.87
2019-04-03T18:17:12.950Z,100175.13
2019-04-03T18:19:47.979Z,100162.32
2019-04-03T18:22:23.159Z,100154.95
2019-04-03T18:24:58.166Z,100158.83
2019-04-03T18:27:34.101Z,100160.42
2019-04-03T18:30:12.466Z,100160.39
2019-04-03T18:32:47.822Z,100153.59
2019-04-03T18:35:25.546Z,100162.42
2019-04-03T18:37:59.863Z,100156.66
2019-04-03T18:40:35.122Z,100162.72
2019-04-03T18:43:10.112Z,100157.72
2019-04-03T18:45:45.088Z,100156.61
2019-04-03T18:48:20.100Z,100156.08
2019-04-03T18:50:55.074Z,100163.14
2019-04-03T18:53:30.071Z,100158.40
2019-04-03T18:56:05.538Z,100153.69
2019-04-03T18:58:43.963Z,100151.76
2019-04-03T19:01:18.623Z,100151.47
2019-04-03T19:03:54.744Z,100144.58
2019-04-03T19:06:29.736Z,100146.61
2019-04-03T19:09:10.049Z,100137.50
2019-04-03T19:11:43.530Z,100124.41
2019-04-03T19:14:27.035Z,100129.39
2019-04-03T19:16:57.390Z,100128.87
2019-04-03T19:19:32.762Z,100121.98
2019-04-03T19:22:08.533Z,100139.42
2019-04-03T19:24:43.761Z,100156.47
2019-04-03T19:27:18.856Z,100153.69
2019-04-03T19:29:54.062Z,100139.44
2019-04-03T19:32:29.121Z,100139.20
2019-04-03T19:35:04.281Z,100145.70
2019-04-03T19:37:39.358Z,100167.98
2019-04-03T19:40:14.853Z,100170.95
2019-04-03T19:42:49.938Z,100150.55
2019-04-03T19:45:25.010Z,100135.42
2019-04-03T19:48:00.891Z,100130.52
2019-04-03T19:50:36.008Z,100123.16
2019-04-03T19:53:12.829Z,100112.67
2019-04-03T19:55:47.852Z,100105.35
2019-04-03T19:58:23.172Z,100099.05
2019-04-03T20:00:58.255Z,100101.75
2019-04-03T20:03:34.562Z,100088.86
2019-04-03T20:06:09.571Z,100104.61
2019-04-03T20:08:44.656Z,100106.45
2019-04-03T20:11:19.948Z,100109.48
2019-04-03T20:13:55.013Z,100122.86
2019-04-03T20:16:30.618Z,100077.69
2019-04-03T20:19:05.763Z,100077.64
2019-04-03T20:21:40.768Z,100099.05
2019-04-03T20:24:15.753Z,100123.72
2019-04-03T20:26:50.805Z,100143.89
2019-04-03T20:29:31.586Z,100150.64
2019-04-03T20:32:07.145Z,100159.42
2019-04-03T20:34:44.423Z,100162.03
2019-04-03T20:37:19.806Z,100155.45
2019-04-03T20:39:54.777Z,100150.78
2019-04-03T20:42:29.787Z,100124.41
2019-04-03T20:45:05.317Z,100107.97
2019-04-03T20:47:40.367Z,100124.60
2019-04-03T20:50:16.282Z,100130.67
2019-04-03T20:52:52.132Z,100137.36
2019-04-03T20:55:29.148Z,100136.28
2019-04-03T20:58:06.620Z,100143.67
2019-04-03T21:00:41.470Z,100155.14
2019-04-03T21:03:16.458Z,100185.06
2019-04-03T21:05:51.608Z,100206.60
2019-04-03T21:08:27.190Z,100217.91
2019-04-03T21:11:03.032Z,100227.91
2019-04-03T21:13:40.200Z,100238.44
2019-04-03T21:16:16.959Z,100231.17
2019-04-03T21:18:53.594Z,100195.89
2019-04-03T21:21:28.697Z,100165.55
2019-04-03T21:24:04.575Z,100148.03
2019-04-03T21:26:43.453Z,100148.03
2019-04-03T21:29:20.123Z,100150.98
2019-04-03T21:31:56.709Z,100178.75
2019-04-03T21:34:32.813Z,100184.00
2019-04-03T21:37:09.569Z,100189.81
2019-04-03T21:39:45.058Z,100198.69
2019-04-03T21:42:20.119Z,100193.98
2019-04-03T21:44:55.085Z,100188.46
2019-04-03T21:47:30.170Z,100196.30
2019-04-03T21:50:06.093Z,100190.35
2019-04-03T21:52:42.247Z,100188.46
2019-04-03T21:55:17.944Z,100183.22
2019-04-03T21:57:53.134Z,100164.37
2019-04-03T22:01:20.979Z,100166.58
2019-04-03T22:03:56.138Z,100153.78
2019-04-03T22:06:31.411Z,100146.94
2019-04-03T22:09:12.291Z,100151.30
2019-04-03T22:11:47.556Z,100143.80
2019-04-03T22:14:22.782Z,100136.97
2019-04-03T22:16:57.878Z,100140.16
2019-04-03T22:19:33.680Z,100155.16
2019-04-03T22:22:08.796Z,100169.02
2019-04-03T22:24:43.948Z,100177.59
2019-04-03T22:27:19.019Z,100181.56
2019-04-03T22:29:54.247Z,100182.34
2019-04-03T22:32:29.303Z,100187.82
2019-04-03T22:35:04.678Z,100184.23
2019-04-03T22:37:40.065Z,100182.98
2019-04-03T22:40:15.246Z,100181.75
2019-04-03T22:42:51.565Z,100179.61
2019-04-03T22:45:26.671Z,100152.85
2019-04-03T22:48:01.952Z,100146.02
2019-04-03T22:50:37.990Z,100122.80
2019-04-03T22:53:13.263Z,100115.97
2019-04-03T22:55:48.289Z,100117.52
2019-04-03T22:58:23.552Z,100116.17
2019-04-03T23:00:59.295Z,100103.12
2019-04-03T23:03:35.057Z,100101.48
2019-04-03T23:06:10.164Z,100099.70
2019-04-03T23:08:45.350Z,100106.72
2019-04-03T23:11:20.441Z,100122.16
2019-04-03T23:13:55.652Z,100118.23
2019-04-03T23:16:30.794Z,100112.23
2019-04-03T23:19:05.965Z,100123.42
2019-04-03T23:21:41.111Z,100121.45
2019-04-03T23:24:16.247Z,100120.95
2019-04-03T23:26:51.439Z,100140.97
2019-04-03T23:29:26.571Z,100139.17
2019-04-03T23:32:01.965Z,100142.50
2019-04-03T23:34:37.494Z,100132.80
2019-04-03T23:37:12.726Z,100126.33
2019-04-03T23:39:47.900Z,100125.75
2019-04-03T23:42:23.221Z,100123.30
2019-04-03T23:44:58.403Z,100115.75
2019-04-03T23:47:34.040Z,100111.71
2019-04-03T23:50:09.221Z,100123.79
2019-04-03T23:52:44.533Z,100115.75
2019-04-03T23:55:19.639Z,100114.20
2019-04-03T23:57:55.066Z,100123.91
